Flight Track Log - Related Links

Times and Time Zones

All times are in EDT time to prevent confusion due to time zone crossing. See the DAL1638 flight status page for this flight to view local times or setup timezone preferences in your user account.

Time Position Orientation Groundspeed Altitude Reporting Facility
EDT Latitude Longitude Course Direction KTS MPH feet Rate Location/Type
Sun 07:46:22 PM 33.6167 -84.5000 53° Northeast 216 249 4,100  Level Atlanta TRACON
Sun 07:47:16 PM 33.6000 -84.5667 253° West 261 300 7,200 2,284 Climbing Atlanta TRACON
Sun 07:48:00 PM 33.7845 -83.9204 54° Northeast  Level FlightAware Approximate
Sun 07:48:57 PM 33.4736 -84.5842 187° South 269 310 10,000  Level Atlanta Center
Sun 07:49:00 PM 33.8497 -83.8117 54° Northeast  Level FlightAware Approximate
Sun 07:49:57 PM 33.4489 -84.4944 108° East 228 262 11,800  Level Atlanta Center
Sun 07:50:00 PM 33.9214 -83.7091 53° Northeast  Level FlightAware Approximate
Sun 07:50:57 PM 33.4578 -84.3750 85° East 301 346 15,100  Level Atlanta Center
Sun 07:51:00 PM 33.9884 -83.6018 53° Northeast  Level FlightAware Approximate
Sun 07:51:57 PM 33.4808 -84.2606 76° East 339 390 18,500  Level Atlanta Center
Sun 07:52:57 PM 33.5814 -84.1933 29° Northeast 372 428 21,000 1,800 Climbing Atlanta Center
Sun 07:53:57 PM 33.6942 -84.1211 28° Northeast 414 476 22,100 1,000 Climbing Atlanta Center
Sun 07:54:57 PM 33.7839 -84.0014 48° Northeast 479 551 23,000 1,350 Climbing Atlanta Center
Sun 07:55:57 PM 33.8547 -83.8586 59° Northeast 489 563 24,800 1,800 Climbing Atlanta Center
Sun 07:56:57 PM 33.9317 -83.7158 57° Northeast 503 579 26,600 1,900 Climbing Atlanta Center
Sun 07:57:57 PM 34.0167 -83.5778 53° Northeast 509 586 28,600 1,950 Climbing Atlanta Center
Sun 07:58:57 PM 34.1017 -83.4417 53° Northeast 503 579 30,500 1,650 Climbing Atlanta Center
Sun 07:59:57 PM 34.1886 -83.3081 52° Northeast 503 579 31,900 1,450 Climbing Atlanta Center
Sun 08:00:57 PM 34.2753 -83.1664 53° Northeast 513 590 33,400 1,200 Climbing Atlanta Center
Sun 08:01:57 PM 34.3517 -83.0425 53° Northeast 519 597 34,300 1,150 Climbing Atlanta Center
Sun 08:02:57 PM 34.4361 -82.9053 53° Northeast 513 590 35,700 1,300 Climbing Atlanta Center
Sun 08:03:57 PM 34.5203 -82.7681 53° Northeast 508 585 36,900 650 Climbing Atlanta Center
Sun 08:04:57 PM 34.6106 -82.6331 51° Northeast 514 592 37,000 50 Climbing Atlanta Center
Sun 08:05:57 PM 34.6964 -82.4800 56° Northeast 509 586 37,000  Level Atlanta Center
Sun 08:06:57 PM 34.7822 -82.3444 52° Northeast 504 580 37,000  Level Atlanta Center
Sun 08:07:57 PM 34.8658 -82.2058 54° Northeast 509 586 37,000  Level Atlanta Center
Sun 08:08:57 PM 34.9492 -82.0697 53° Northeast 509 586 37,000  Level Atlanta Center
Sun 08:09:57 PM 35.0306 -81.9333 54° Northeast 504 580 37,000  Level Atlanta Center
Sun 08:10:57 PM 35.1053 -81.7919 57° Northeast 498 573 37,000  Level Atlanta Center
Sun 08:11:57 PM 35.1819 -81.6525 56° Northeast 493 567 37,000  Level Atlanta Center
Sun 08:12:57 PM 35.2519 -81.5133 58° Northeast 487 560 37,000  Level Atlanta Center
Sun 08:13:57 PM 35.3183 -81.3892 57° Northeast 487 560 37,000  Level Atlanta Center
Sun 08:14:57 PM 35.3903 -81.2492 58° Northeast 487 560 37,000 -150 Level Atlanta Center
Sun 08:15:57 PM 35.4700 -81.0908 58° Northeast 493 567 36,700 -800 Descending Atlanta Center
Sun 08:16:57 PM 35.5439 -80.9531 57° Northeast 484 557 35,400 -1,400 Descending Atlanta Center
Sun 08:17:57 PM 35.6175 -80.8147 57° Northeast 484 557 33,900 -1,200 Descending Atlanta Center
Sun 08:18:57 PM 35.6831 -80.6869 58° Northeast 484 557 33,000 -450 Descending Atlanta Center
Sun 08:19:57 PM 35.7581 -80.5381 58° Northeast 500 575 33,000  Level Atlanta Center
Sun 08:20:57 PM 35.8311 -80.3992 57° Northeast 500 575 33,000  Level Atlanta Center
Sun 08:21:57 PM 35.9097 -80.2367 59° Northeast 500 575 33,000  Level Atlanta Center
Sun 08:22:57 PM 35.9767 -80.1078 57° Northeast 495 570 33,000  Level Atlanta Center
Sun 08:25:14 PM 36.1511 -79.7928 55° Northeast 501 577 33,000  Level Washington Center
Sun 08:26:15 PM 36.2292 -79.6528 55° Northeast 494 568 33,000  Level Washington Center
Sun 08:27:13 PM 36.3133 -79.5025 55° Northeast 484 557 33,000  Level Washington Center
Sun 08:28:14 PM 36.3908 -79.3644 55° Northeast 484 557 33,000  Level Washington Center
Sun 08:29:15 PM 36.4594 -79.2411 55° Northeast 479 551 33,000 -347 Level Washington Center
Sun 08:30:15 PM 36.5450 -79.0925 54° Northeast 479 551 32,300 -2,033 Descending Washington Center
Sun 08:31:16 PM 36.6200 -78.9561 56° Northeast 473 544 28,900 -3,429 Descending Washington Center
Sun 08:32:14 PM 36.6969 -78.8144 56° Northeast 480 552 25,500 -2,000 Descending Washington Center
Sun 08:33:13 PM 36.7714 -78.6800 55° Northeast 480 552 25,000 -250 Descending Washington Center
Sun 08:34:14 PM 36.8436 -78.5456 56° Northeast 475 547 25,000 -545 Level Washington Center
Sun 08:35:14 PM 36.9111 -78.4286 54° Northeast 470 541 23,900 -1,190 Descending Washington Center
Sun 08:36:15 PM 36.9808 -78.2958 57° Northeast 458 527 22,600 -942 Descending Washington Center
Sun 08:37:15 PM 37.0528 -78.1656 55° Northeast 458 527 22,000 -305 Descending Washington Center
Sun 08:38:13 PM 37.1200 -78.0403 56° Northeast 453 521 22,000  Level Washington Center
Sun 08:39:15 PM 37.1872 -77.9147 56° Northeast 448 516 22,000  Level Washington Center
Sun 08:40:15 PM 37.2478 -77.7992 57° Northeast 421 484 22,000  Level Washington Center
Sun 08:41:13 PM 37.3081 -77.6861 56° Northeast 396 456 22,000  Level Washington Center
Sun 08:42:13 PM 37.3931 -77.6072 36° Northeast 375 432 22,000  Level Washington Center
Sun 08:43:13 PM 37.4981 -77.5550 22° Northeast 375 432 22,000  Level Washington Center
Sun 08:44:14 PM 37.6033 -77.5000 22° Northeast 391 450 22,000 -689 Level Washington Center
Sun 08:45:15 PM 37.7106 -77.4503 20° North 404 465 20,600 -1,736 Descending Washington Center
Sun 08:46:15 PM 37.8133 -77.3975 22° Northeast 404 465 18,500 -1,983 Descending Washington Center
Sun 08:47:13 PM 37.9122 -77.3472 22° Northeast 392 451 16,700 -1,966 Descending Washington Center
Sun 08:48:14 PM 38.0067 -77.2994 22° Northeast 378 435 14,600 -1,934 Descending Washington Center
Sun 08:49:14 PM 38.0992 -77.2567 20° North 368 423 12,800 -1,850 Descending Washington Center
Sun 08:50:14 PM 38.1914 -77.2111 21° North 356 410 10,900 -1,377 Descending Washington Center
Sun 08:51:16 PM 38.2778 -77.1603 25° Northeast 338 389 10,000 -454 Descending Washington Center
Sun 08:52:13 PM 38.3533 -77.1114 27° Northeast 309 356 10,000  Level Washington Center
Sun 08:53:14 PM 38.4144 -77.0544 36° Northeast 285 328 10,000 -439 Level Washington Center
Sun 08:54:16 PM 38.4775 -77.0292 17° North 251 289 9,100 -1,109 Descending Washington Center
Sun 08:55:13 PM 38.5358 -77.0197 North 222 255 7,800 -1,436 Descending Washington Center
Sun 08:56:13 PM 38.5814 -77.0497 333° Northwest 190 219 6,300 -1,426 Descending Washington Center
Sun 08:57:15 PM 38.6336 -77.0481 North 184 212 4,900 -1,466 Descending Washington Center
Sun 08:58:24 PM 38.6833 -77.0167 26° Northeast 186 214 3,100 -1,333 Descending Potomac TRACON
Sun 08:59:30 PM 38.7500 -77.0333 349° North 175 201 1,900 -950 Descending Potomac TRACON
Sun 09:00:24 PM 38.7833 -77.0333 360° North 160 184 1,200 -737 Descending Potomac TRACON
Sun 09:01:24 PM 38.8167 -77.0333 360° North 133 153 500 -700 Descending Potomac TRACON

Login

Don't have an account? Register now (free) for customized features, flight alerts, and more!